sensor_id;sensor_type;location;lat;lon;timestamp;temperature;humidity
7902;DHT22;3996;49.674;10.716;2024-02-21T00:01:42;8.30;32.10
7902;DHT22;3996;49.674;10.716;2024-02-21T00:04:07;8.20;32.40
7902;DHT22;3996;49.674;10.716;2024-02-21T00:06:33;8.20;32.60
7902;DHT22;3996;49.674;10.716;2024-02-21T00:08:58;8.20;32.80
7902;DHT22;3996;49.674;10.716;2024-02-21T00:11:24;8.20;33.00
7902;DHT22;3996;49.674;10.716;2024-02-21T00:13:50;8.20;33.10
7902;DHT22;3996;49.674;10.716;2024-02-21T00:16:18;8.20;33.00
7902;DHT22;3996;49.674;10.716;2024-02-21T00:18:44;8.20;33.20
7902;DHT22;3996;49.674;10.716;2024-02-21T00:21:09;8.10;33.40
7902;DHT22;3996;49.674;10.716;2024-02-21T00:23:40;8.20;33.50
7902;DHT22;3996;49.674;10.716;2024-02-21T00:26:06;8.20;33.40
7902;DHT22;3996;49.674;10.716;2024-02-21T00:28:31;8.20;33.10
7902;DHT22;3996;49.674;10.716;2024-02-21T00:30:57;8.20;33.20
7902;DHT22;3996;49.674;10.716;2024-02-21T00:33:22;8.20;33.70
7902;DHT22;3996;49.674;10.716;2024-02-21T00:35:48;8.20;33.30
7902;DHT22;3996;49.674;10.716;2024-02-21T00:38:13;8.20;33.50
7902;DHT22;3996;49.674;10.716;2024-02-21T00:40:39;8.20;33.70
7902;DHT22;3996;49.674;10.716;2024-02-21T00:43:05;8.20;33.60
7902;DHT22;3996;49.674;10.716;2024-02-21T00:45:30;8.20;33.90
7902;DHT22;3996;49.674;10.716;2024-02-21T00:47:56;8.20;34.10
7902;DHT22;3996;49.674;10.716;2024-02-21T00:50:21;8.10;34.30
7902;DHT22;3996;49.674;10.716;2024-02-21T00:52:47;8.20;34.30
7902;DHT22;3996;49.674;10.716;2024-02-21T00:55:14;8.10;34.30
7902;DHT22;3996;49.674;10.716;2024-02-21T00:57:39;8.10;34.50
7902;DHT22;3996;49.674;10.716;2024-02-21T01:00:05;8.10;34.70
7902;DHT22;3996;49.674;10.716;2024-02-21T01:02:31;8.20;34.70
7902;DHT22;3996;49.674;10.716;2024-02-21T01:04:57;8.20;34.60
7902;DHT22;3996;49.674;10.716;2024-02-21T01:07:23;8.20;34.40
7902;DHT22;3996;49.674;10.716;2024-02-21T01:09:48;8.20;34.40
7902;DHT22;3996;49.674;10.716;2024-02-21T01:12:16;8.20;34.30
7902;DHT22;3996;49.674;10.716;2024-02-21T01:14:42;8.20;34.10
7902;DHT22;3996;49.674;10.716;2024-02-21T01:17:08;8.30;34.20
7902;DHT22;3996;49.674;10.716;2024-02-21T01:19:33;8.30;34.20
7902;DHT22;3996;49.674;10.716;2024-02-21T01:21:59;8.30;34.10
7902;DHT22;3996;49.674;10.716;2024-02-21T01:24:25;8.30;34.10
7902;DHT22;3996;49.674;10.716;2024-02-21T01:26:50;8.20;34.30
7902;DHT22;3996;49.674;10.716;2024-02-21T01:29:16;8.20;34.10
7902;DHT22;3996;49.674;10.716;2024-02-21T01:31:41;8.20;34.60
7902;DHT22;3996;49.674;10.716;2024-02-21T01:34:07;8.10;34.90
7902;DHT22;3996;49.674;10.716;2024-02-21T01:36:33;8.20;34.50
7902;DHT22;3996;49.674;10.716;2024-02-21T01:38:58;8.30;34.50
7902;DHT22;3996;49.674;10.716;2024-02-21T01:41:24;8.20;34.70
7902;DHT22;3996;49.674;10.716;2024-02-21T01:43:50;8.20;34.80
7902;DHT22;3996;49.674;10.716;2024-02-21T01:46:15;8.20;34.90
7902;DHT22;3996;49.674;10.716;2024-02-21T01:48:41;8.20;35.00
7902;DHT22;3996;49.674;10.716;2024-02-21T01:51:07;8.20;35.00
7902;DHT22;3996;49.674;10.716;2024-02-21T01:53:37;8.20;35.00
7902;DHT22;3996;49.674;10.716;2024-02-21T01:56:06;8.20;35.00
7902;DHT22;3996;49.674;10.716;2024-02-21T01:58:33;8.20;35.50
7902;DHT22;3996;49.674;10.716;2024-02-21T02:01:02;8.20;35.50
7902;DHT22;3996;49.674;10.716;2024-02-21T02:03:28;8.20;35.70
7902;DHT22;3996;49.674;10.716;2024-02-21T02:05:55;8.20;35.80
7902;DHT22;3996;49.674;10.716;2024-02-21T02:08:21;8.20;35.50
7902;DHT22;3996;49.674;10.716;2024-02-21T02:10:49;8.20;35.50
7902;DHT22;3996;49.674;10.716;2024-02-21T02:13:15;8.20;35.50
7902;DHT22;3996;49.674;10.716;2024-02-21T02:18:07;8.30;35.30
7902;DHT22;3996;49.674;10.716;2024-02-21T02:20:33;8.30;35.50
7902;DHT22;3996;49.674;10.716;2024-02-21T02:25:36;8.20;35.60
7902;DHT22;3996;49.674;10.716;2024-02-21T02:28:03;8.20;36.10
7902;DHT22;3996;49.674;10.716;2024-02-21T02:30:29;8.20;36.00
7902;DHT22;3996;49.674;10.716;2024-02-21T02:32:57;8.20;36.00
7902;DHT22;3996;49.674;10.716;2024-02-21T02:35:22;8.20;36.10
7902;DHT22;3996;49.674;10.716;2024-02-21T02:37:49;8.20;36.00
7902;DHT22;3996;49.674;10.716;2024-02-21T02:40:15;8.20;36.00
7902;DHT22;3996;49.674;10.716;2024-02-21T02:42:41;8.20;36.50
7902;DHT22;3996;49.674;10.716;2024-02-21T02:45:07;8.20;36.10
7902;DHT22;3996;49.674;10.716;2024-02-21T02:47:32;8.20;36.00
7902;DHT22;3996;49.674;10.716;2024-02-21T02:50:00;8.20;36.30
7902;DHT22;3996;49.674;10.716;2024-02-21T02:52:25;8.20;36.30
7902;DHT22;3996;49.674;10.716;2024-02-21T02:54:51;8.20;36.60
7902;DHT22;3996;49.674;10.716;2024-02-21T02:57:18;8.20;36.60
7902;DHT22;3996;49.674;10.716;2024-02-21T02:59:50;8.20;36.20
7902;DHT22;3996;49.674;10.716;2024-02-21T03:02:17;8.20;36.40
7902;DHT22;3996;49.674;10.716;2024-02-21T03:04:43;8.20;36.70
7902;DHT22;3996;49.674;10.716;2024-02-21T03:07:09;8.20;36.90
7902;DHT22;3996;49.674;10.716;2024-02-21T03:09:37;8.20;36.70
7902;DHT22;3996;49.674;10.716;2024-02-21T03:12:03;8.20;36.80
7902;DHT22;3996;49.674;10.716;2024-02-21T03:14:29;8.20;36.50
7902;DHT22;3996;49.674;10.716;2024-02-21T03:16:55;8.30;36.40
7902;DHT22;3996;49.674;10.716;2024-02-21T03:19:21;8.30;36.50
7902;DHT22;3996;49.674;10.716;2024-02-21T03:21:48;8.30;36.30
7902;DHT22;3996;49.674;10.716;2024-02-21T03:24:15;8.30;36.80
7902;DHT22;3996;49.674;10.716;2024-02-21T03:26:41;8.30;36.50
7902;DHT22;3996;49.674;10.716;2024-02-21T03:29:06;8.30;36.50
7902;DHT22;3996;49.674;10.716;2024-02-21T03:31:32;8.30;36.40
7902;DHT22;3996;49.674;10.716;2024-02-21T03:33:58;8.20;36.80
7902;DHT22;3996;49.674;10.716;2024-02-21T03:36:24;8.20;37.40
7902;DHT22;3996;49.674;10.716;2024-02-21T03:38:49;8.20;38.40
7902;DHT22;3996;49.674;10.716;2024-02-21T03:41:15;8.20;38.60
7902;DHT22;3996;49.674;10.716;2024-02-21T03:43:40;8.20;39.90
7902;DHT22;3996;49.674;10.716;2024-02-21T03:46:06;8.20;40.80
7902;DHT22;3996;49.674;10.716;2024-02-21T03:48:32;8.10;41.70
7902;DHT22;3996;49.674;10.716;2024-02-21T03:50:58;8.10;44.10
7902;DHT22;3996;49.674;10.716;2024-02-21T03:53:24;8.00;44.80
7902;DHT22;3996;49.674;10.716;2024-02-21T03:55:49;8.00;45.70
7902;DHT22;3996;49.674;10.716;2024-02-21T03:58:15;8.00;46.00
7902;DHT22;3996;49.674;10.716;2024-02-21T04:00:41;8.00;47.10
7902;DHT22;3996;49.674;10.716;2024-02-21T04:03:06;8.00;46.60
7902;DHT22;3996;49.674;10.716;2024-02-21T04:05:32;7.90;46.80
7902;DHT22;3996;49.674;10.716;2024-02-21T04:07:58;7.90;47.80
7902;DHT22;3996;49.674;10.716;2024-02-21T04:10:24;7.90;48.30
7902;DHT22;3996;49.674;10.716;2024-02-21T04:12:50;7.80;48.30
7902;DHT22;3996;49.674;10.716;2024-02-21T04:15:16;7.80;48.60
7902;DHT22;3996;49.674;10.716;2024-02-21T04:17:42;7.80;49.40
7902;DHT22;3996;49.674;10.716;2024-02-21T04:20:14;7.80;48.70
7902;DHT22;3996;49.674;10.716;2024-02-21T04:22:40;7.80;49.20
7902;DHT22;3996;49.674;10.716;2024-02-21T04:25:06;7.80;49.40
7902;DHT22;3996;49.674;10.716;2024-02-21T04:27:31;7.80;49.40
7902;DHT22;3996;49.674;10.716;2024-02-21T04:29:57;7.70;49.70
7902;DHT22;3996;49.674;10.716;2024-02-21T04:32:23;7.70;49.60
7902;DHT22;3996;49.674;10.716;2024-02-21T04:34:48;7.70;50.10
7902;DHT22;3996;49.674;10.716;2024-02-21T04:37:14;7.70;50.50
7902;DHT22;3996;49.674;10.716;2024-02-21T04:39:40;7.70;50.40
7902;DHT22;3996;49.674;10.716;2024-02-21T04:42:05;7.70;50.30
7902;DHT22;3996;49.674;10.716;2024-02-21T04:44:31;7.60;50.00
7902;DHT22;3996;49.674;10.716;2024-02-21T04:46:56;7.50;51.30
7902;DHT22;3996;49.674;10.716;2024-02-21T04:49:22;7.50;51.70
7902;DHT22;3996;49.674;10.716;2024-02-21T04:51:48;7.50;51.70
7902;DHT22;3996;49.674;10.716;2024-02-21T04:54:13;7.50;51.90
7902;DHT22;3996;49.674;10.716;2024-02-21T04:56:39;7.50;51.80
7902;DHT22;3996;49.674;10.716;2024-02-21T04:59:04;7.50;51.50
7902;DHT22;3996;49.674;10.716;2024-02-21T05:01:30;7.40;51.70
7902;DHT22;3996;49.674;10.716;2024-02-21T05:03:56;7.40;52.20
7902;DHT22;3996;49.674;10.716;2024-02-21T05:06:22;7.40;51.60
7902;DHT22;3996;49.674;10.716;2024-02-21T05:08:47;7.40;51.40
7902;DHT22;3996;49.674;10.716;2024-02-21T05:11:13;7.40;51.10
7902;DHT22;3996;49.674;10.716;2024-02-21T05:13:39;7.40;51.00
7902;DHT22;3996;49.674;10.716;2024-02-21T05:16:05;7.40;51.40
7902;DHT22;3996;49.674;10.716;2024-02-21T05:18:33;7.40;51.40
7902;DHT22;3996;49.674;10.716;2024-02-21T05:20:59;7.40;51.20
7902;DHT22;3996;49.674;10.716;2024-02-21T05:23:24;7.30;51.30
7902;DHT22;3996;49.674;10.716;2024-02-21T05:25:50;7.20;51.40
7902;DHT22;3996;49.674;10.716;2024-02-21T05:28:16;7.20;51.60
7902;DHT22;3996;49.674;10.716;2024-02-21T05:30:42;7.20;51.70
7902;DHT22;3996;49.674;10.716;2024-02-21T05:33:08;7.20;51.60
7902;DHT22;3996;49.674;10.716;2024-02-21T05:35:34;7.20;52.00
7902;DHT22;3996;49.674;10.716;2024-02-21T05:38:00;7.20;51.70
7902;DHT22;3996;49.674;10.716;2024-02-21T05:40:26;7.20;52.00
7902;DHT22;3996;49.674;10.716;2024-02-21T05:42:51;7.10;52.00
7902;DHT22;3996;49.674;10.716;2024-02-21T05:45:20;7.10;51.90
7902;DHT22;3996;49.674;10.716;2024-02-21T05:47:46;7.00;52.40
7902;DHT22;3996;49.674;10.716;2024-02-21T05:50:11;7.00;51.90
7902;DHT22;3996;49.674;10.716;2024-02-21T05:52:37;7.00;51.80
7902;DHT22;3996;49.674;10.716;2024-02-21T05:55:03;7.00;51.40
7902;DHT22;3996;49.674;10.716;2024-02-21T05:57:28;7.00;51.80
7902;DHT22;3996;49.674;10.716;2024-02-21T05:59:54;6.90;52.20
7902;DHT22;3996;49.674;10.716;2024-02-21T06:02:19;7.00;52.00
7902;DHT22;3996;49.674;10.716;2024-02-21T06:04:45;6.90;51.70
7902;DHT22;3996;49.674;10.716;2024-02-21T06:07:11;6.80;52.50
7902;DHT22;3996;49.674;10.716;2024-02-21T06:09:37;6.70;52.80
7902;DHT22;3996;49.674;10.716;2024-02-21T06:12:03;6.70;53.40
7902;DHT22;3996;49.674;10.716;2024-02-21T06:14:28;6.50;54.10
7902;DHT22;3996;49.674;10.716;2024-02-21T06:16:54;6.60;53.80
7902;DHT22;3996;49.674;10.716;2024-02-21T06:19:20;6.60;52.80
7902;DHT22;3996;49.674;10.716;2024-02-21T06:21:45;6.70;51.60
7902;DHT22;3996;49.674;10.716;2024-02-21T06:24:11;6.60;52.00
7902;DHT22;3996;49.674;10.716;2024-02-21T06:26:38;6.70;52.50
7902;DHT22;3996;49.674;10.716;2024-02-21T06:29:05;6.60;53.10
7902;DHT22;3996;49.674;10.716;2024-02-21T06:31:31;6.60;53.60
7902;DHT22;3996;49.674;10.716;2024-02-21T06:33:57;6.70;53.40
7902;DHT22;3996;49.674;10.716;2024-02-21T06:36:23;6.70;53.30
7902;DHT22;3996;49.674;10.716;2024-02-21T06:38:48;6.70;53.30
7902;DHT22;3996;49.674;10.716;2024-02-21T06:41:20;6.40;55.20
7902;DHT22;3996;49.674;10.716;2024-02-21T06:43:46;6.30;57.20
7902;DHT22;3996;49.674;10.716;2024-02-21T06:46:22;6.50;56.20
7902;DHT22;3996;49.674;10.716;2024-02-21T06:48:47;6.80;54.50
7902;DHT22;3996;49.674;10.716;2024-02-21T06:51:13;7.20;52.00
7902;DHT22;3996;49.674;10.716;2024-02-21T06:53:39;7.40;48.70
7902;DHT22;3996;49.674;10.716;2024-02-21T06:56:05;8.00;46.40
7902;DHT22;3996;49.674;10.716;2024-02-21T06:58:31;8.30;42.60
7902;DHT22;3996;49.674;10.716;2024-02-21T07:00:57;8.40;42.00
7902;DHT22;3996;49.674;10.716;2024-02-21T07:03:22;8.30;41.30
7902;DHT22;3996;49.674;10.716;2024-02-21T07:05:49;8.30;41.40
7902;DHT22;3996;49.674;10.716;2024-02-21T07:08:15;8.50;40.70
7902;DHT22;3996;49.674;10.716;2024-02-21T07:10:41;8.20;40.80
7902;DHT22;3996;49.674;10.716;2024-02-21T07:13:07;7.90;43.60
7902;DHT22;3996;49.674;10.716;2024-02-21T07:15:32;8.10;44.20
7902;DHT22;3996;49.674;10.716;2024-02-21T07:17:58;8.60;42.80
7902;DHT22;3996;49.674;10.716;2024-02-21T07:20:24;8.90;39.30
7902;DHT22;3996;49.674;10.716;2024-02-21T07:22:50;8.80;39.30
7902;DHT22;3996;49.674;10.716;2024-02-21T07:25:16;8.70;38.50
7902;DHT22;3996;49.674;10.716;2024-02-21T07:27:43;9.00;38.80
7902;DHT22;3996;49.674;10.716;2024-02-21T07:30:09;9.60;35.80
7902;DHT22;3996;49.674;10.716;2024-02-21T07:32:35;9.40;36.80
7902;DHT22;3996;49.674;10.716;2024-02-21T07:35:00;9.80;34.70
7902;DHT22;3996;49.674;10.716;2024-02-21T07:37:26;10.30;31.80
7902;DHT22;3996;49.674;10.716;2024-02-21T07:39:51;11.00;29.50
7902;DHT22;3996;49.674;10.716;2024-02-21T07:42:17;11.20;29.50
7902;DHT22;3996;49.674;10.716;2024-02-21T07:44:42;11.00;29.40
7902;DHT22;3996;49.674;10.716;2024-02-21T07:47:08;10.60;29.90
7902;DHT22;3996;49.674;10.716;2024-02-21T07:49:41;10.70;32.00
7902;DHT22;3996;49.674;10.716;2024-02-21T07:52:07;10.70;31.70
7902;DHT22;3996;49.674;10.716;2024-02-21T07:54:33;10.40;31.70
7902;DHT22;3996;49.674;10.716;2024-02-21T07:56:58;10.00;32.10
7902;DHT22;3996;49.674;10.716;2024-02-21T07:59:24;9.60;35.20
7902;DHT22;3996;49.674;10.716;2024-02-21T08:01:49;9.40;35.50
7902;DHT22;3996;49.674;10.716;2024-02-21T08:04:15;9.20;36.20
7902;DHT22;3996;49.674;10.716;2024-02-21T08:06:40;9.10;37.80
7902;DHT22;3996;49.674;10.716;2024-02-21T08:09:06;8.80;37.80
7902;DHT22;3996;49.674;10.716;2024-02-21T08:11:32;8.80;40.50
7902;DHT22;3996;49.674;10.716;2024-02-21T08:13:57;8.70;40.40
7902;DHT22;3996;49.674;10.716;2024-02-21T08:16:23;8.80;42.40
7902;DHT22;3996;49.674;10.716;2024-02-21T08:18:49;8.90;42.10
7902;DHT22;3996;49.674;10.716;2024-02-21T08:21:14;8.90;41.40
7902;DHT22;3996;49.674;10.716;2024-02-21T08:23:40;8.90;40.50
7902;DHT22;3996;49.674;10.716;2024-02-21T08:26:05;8.90;38.50
7902;DHT22;3996;49.674;10.716;2024-02-21T08:28:31;9.00;37.60
7902;DHT22;3996;49.674;10.716;2024-02-21T08:30:57;9.00;39.30
7902;DHT22;3996;49.674;10.716;2024-02-21T08:33:22;9.00;38.90
7902;DHT22;3996;49.674;10.716;2024-02-21T08:35:51;9.00;38.10
7902;DHT22;3996;49.674;10.716;2024-02-21T08:38:17;9.00;36.20
7902;DHT22;3996;49.674;10.716;2024-02-21T08:40:42;9.00;35.70
7902;DHT22;3996;49.674;10.716;2024-02-21T08:43:08;9.00;35.70
7902;DHT22;3996;49.674;10.716;2024-02-21T08:45:34;9.00;35.30
7902;DHT22;3996;49.674;10.716;2024-02-21T08:47:59;9.00;35.80
7902;DHT22;3996;49.674;10.716;2024-02-21T08:50:25;9.10;34.70
7902;DHT22;3996;49.674;10.716;2024-02-21T08:52:50;9.20;34.90
7902;DHT22;3996;49.674;10.716;2024-02-21T08:55:16;9.20;34.30
7902;DHT22;3996;49.674;10.716;2024-02-21T08:57:41;9.30;34.90
7902;DHT22;3996;49.674;10.716;2024-02-21T09:00:07;9.40;33.20
7902;DHT22;3996;49.674;10.716;2024-02-21T09:02:40;9.50;33.30
7902;DHT22;3996;49.674;10.716;2024-02-21T09:05:08;9.50;33.00
7902;DHT22;3996;49.674;10.716;2024-02-21T09:07:34;9.70;32.30
7902;DHT22;3996;49.674;10.716;2024-02-21T09:09:59;10.30;32.70
7902;DHT22;3996;49.674;10.716;2024-02-21T09:12:26;11.50;27.80
7902;DHT22;3996;49.674;10.716;2024-02-21T09:14:52;11.90;25.10
7902;DHT22;3996;49.674;10.716;2024-02-21T09:17:18;12.10;24.70
7902;DHT22;3996;49.674;10.716;2024-02-21T09:19:44;11.90;23.90
7902;DHT22;3996;49.674;10.716;2024-02-21T09:22:10;12.60;23.60
7902;DHT22;3996;49.674;10.716;2024-02-21T09:24:35;13.40;19.90
7902;DHT22;3996;49.674;10.716;2024-02-21T09:27:01;13.60;19.40
7902;DHT22;3996;49.674;10.716;2024-02-21T09:29:27;14.00;18.10
7902;DHT22;3996;49.674;10.716;2024-02-21T09:31:52;14.00;16.70
7902;DHT22;3996;49.674;10.716;2024-02-21T09:34:18;14.10;15.90
7902;DHT22;3996;49.674;10.716;2024-02-21T09:36:44;13.80;16.00
7902;DHT22;3996;49.674;10.716;2024-02-21T09:39:10;13.10;17.30
7902;DHT22;3996;49.674;10.716;2024-02-21T09:41:43;12.60;17.70
7902;DHT22;3996;49.674;10.716;2024-02-21T09:44:10;12.70;18.80
7902;DHT22;3996;49.674;10.716;2024-02-21T09:47:03;13.00;18.90
7902;DHT22;3996;49.674;10.716;2024-02-21T09:49:35;13.30;18.10
7902;DHT22;3996;49.674;10.716;2024-02-21T09:52:05;13.60;18.20
7902;DHT22;3996;49.674;10.716;2024-02-21T09:54:35;13.70;17.50
7902;DHT22;3996;49.674;10.716;2024-02-21T09:57:02;14.10;17.50
7902;DHT22;3996;49.674;10.716;2024-02-21T09:59:30;14.20;16.00
7902;DHT22;3996;49.674;10.716;2024-02-21T10:01:56;14.20;15.30
7902;DHT22;3996;49.674;10.716;2024-02-21T10:04:23;14.20;14.30
7902;DHT22;3996;49.674;10.716;2024-02-21T10:06:48;14.40;14.00
7902;DHT22;3996;49.674;10.716;2024-02-21T10:09:24;14.50;13.80
7902;DHT22;3996;49.674;10.716;2024-02-21T10:11:50;14.60;14.10
7902;DHT22;3996;49.674;10.716;2024-02-21T10:14:16;14.50;14.30
7902;DHT22;3996;49.674;10.716;2024-02-21T10:16:42;14.40;14.60
7902;DHT22;3996;49.674;10.716;2024-02-21T10:19:18;14.30;13.50
7902;DHT22;3996;49.674;10.716;2024-02-21T10:21:45;14.00;14.70
7902;DHT22;3996;49.674;10.716;2024-02-21T10:24:12;13.80;15.60
7902;DHT22;3996;49.674;10.716;2024-02-21T10:26:37;13.80;16.60
7902;DHT22;3996;49.674;10.716;2024-02-21T10:29:03;13.50;14.70
7902;DHT22;3996;49.674;10.716;2024-02-21T10:31:29;12.80;14.70
7902;DHT22;3996;49.674;10.716;2024-02-21T10:33:56;12.80;15.70
7902;DHT22;3996;49.674;10.716;2024-02-21T10:36:22;12.80;16.70
7902;DHT22;3996;49.674;10.716;2024-02-21T10:38:48;13.00;17.60
7902;DHT22;3996;49.674;10.716;2024-02-21T10:41:14;13.00;16.10
7902;DHT22;3996;49.674;10.716;2024-02-21T10:43:49;12.60;16.90
7902;DHT22;3996;49.674;10.716;2024-02-21T10:46:18;12.60;17.60
7902;DHT22;3996;49.674;10.716;2024-02-21T10:48:45;12.70;17.40
7902;DHT22;3996;49.674;10.716;2024-02-21T10:51:14;12.80;18.10
7902;DHT22;3996;49.674;10.716;2024-02-21T10:53:57;12.80;17.50
7902;DHT22;3996;49.674;10.716;2024-02-21T10:56:31;12.70;16.80
7902;DHT22;3996;49.674;10.716;2024-02-21T10:59:05;12.80;17.50
7902;DHT22;3996;49.674;10.716;2024-02-21T11:01:31;12.80;17.00
7902;DHT22;3996;49.674;10.716;2024-02-21T11:03:59;12.60;17.10
7902;DHT22;3996;49.674;10.716;2024-02-21T11:06:27;12.90;18.10
7902;DHT22;3996;49.674;10.716;2024-02-21T11:09:05;12.90;17.30
7902;DHT22;3996;49.674;10.716;2024-02-21T11:11:40;12.90;17.80
7902;DHT22;3996;49.674;10.716;2024-02-21T11:14:10;12.90;18.30
7902;DHT22;3996;49.674;10.716;2024-02-21T11:16:38;13.00;17.30
7902;DHT22;3996;49.674;10.716;2024-02-21T11:19:06;13.20;17.80
7902;DHT22;3996;49.674;10.716;2024-02-21T11:21:35;13.40;17.40
7902;DHT22;3996;49.674;10.716;2024-02-21T11:24:02;13.50;17.00
7902;DHT22;3996;49.674;10.716;2024-02-21T11:26:30;13.60;16.00
7902;DHT22;3996;49.674;10.716;2024-02-21T11:29:02;13.40;15.70
7902;DHT22;3996;49.674;10.716;2024-02-21T11:31:41;13.70;17.30
7902;DHT22;3996;49.674;10.716;2024-02-21T11:34:11;13.80;14.60
7902;DHT22;3996;49.674;10.716;2024-02-21T11:36:46;13.80;15.40
7902;DHT22;3996;49.674;10.716;2024-02-21T11:39:12;13.80;14.90
7902;DHT22;3996;49.674;10.716;2024-02-21T11:41:38;13.90;14.20
7902;DHT22;3996;49.674;10.716;2024-02-21T11:44:04;13.80;13.20
7902;DHT22;3996;49.674;10.716;2024-02-21T11:46:29;13.70;13.10
7902;DHT22;3996;49.674;10.716;2024-02-21T11:48:55;13.80;13.60
7902;DHT22;3996;49.674;10.716;2024-02-21T11:51:24;13.80;13.00
7902;DHT22;3996;49.674;10.716;2024-02-21T11:53:52;13.80;13.70
7902;DHT22;3996;49.674;10.716;2024-02-21T11:56:18;13.80;13.80
7902;DHT22;3996;49.674;10.716;2024-02-21T11:58:45;13.60;11.90
7902;DHT22;3996;49.674;10.716;2024-02-21T12:01:11;13.20;12.60
7902;DHT22;3996;49.674;10.716;2024-02-21T12:03:36;13.30;12.90
7902;DHT22;3996;49.674;10.716;2024-02-21T12:06:03;13.30;12.90
7902;DHT22;3996;49.674;10.716;2024-02-21T12:08:41;13.30;12.10
7902;DHT22;3996;49.674;10.716;2024-02-21T12:11:21;13.40;11.70
7902;DHT22;3996;49.674;10.716;2024-02-21T12:14:03;13.50;12.20
7902;DHT22;3996;49.674;10.716;2024-02-21T12:16:33;13.60;12.00
7902;DHT22;3996;49.674;10.716;2024-02-21T12:19:02;13.50;11.40
7902;DHT22;3996;49.674;10.716;2024-02-21T12:21:35;13.40;11.70
7902;DHT22;3996;49.674;10.716;2024-02-21T12:24:22;13.30;11.70
7902;DHT22;3996;49.674;10.716;2024-02-21T12:26:49;13.40;11.70
7902;DHT22;3996;49.674;10.716;2024-02-21T12:29:14;13.10;11.40
7902;DHT22;3996;49.674;10.716;2024-02-21T12:31:40;13.30;11.80
7902;DHT22;3996;49.674;10.716;2024-02-21T12:34:06;13.50;12.60
7902;DHT22;3996;49.674;10.716;2024-02-21T12:36:32;13.70;12.00
7902;DHT22;3996;49.674;10.716;2024-02-21T12:39:01;13.80;10.50
7902;DHT22;3996;49.674;10.716;2024-02-21T12:41:28;13.80;11.40
7902;DHT22;3996;49.674;10.716;2024-02-21T12:43:55;13.90;10.90
7902;DHT22;3996;49.674;10.716;2024-02-21T12:46:22;14.00;10.70
7902;DHT22;3996;49.674;10.716;2024-02-21T12:48:47;13.90;10.40
7902;DHT22;3996;49.674;10.716;2024-02-21T12:51:13;13.90;10.00
7902;DHT22;3996;49.674;10.716;2024-02-21T12:53:39;13.80;10.00
7902;DHT22;3996;49.674;10.716;2024-02-21T12:56:05;13.80;10.00
7902;DHT22;3996;49.674;10.716;2024-02-21T12:58:32;13.70;9.90
7902;DHT22;3996;49.674;10.716;2024-02-21T13:00:58;13.60;9.90
7902;DHT22;3996;49.674;10.716;2024-02-21T13:03:24;13.60;10.60
7902;DHT22;3996;49.674;10.716;2024-02-21T13:05:49;13.50;10.90
7902;DHT22;3996;49.674;10.716;2024-02-21T13:08:15;13.60;11.20
7902;DHT22;3996;49.674;10.716;2024-02-21T13:10:41;13.50;11.90
7902;DHT22;3996;49.674;10.716;2024-02-21T13:13:06;13.40;9.80
7902;DHT22;3996;49.674;10.716;2024-02-21T13:15:32;13.50;9.10
7902;DHT22;3996;49.674;10.716;2024-02-21T13:17:58;13.60;9.10
7902;DHT22;3996;49.674;10.716;2024-02-21T13:20:27;13.50;9.30
7902;DHT22;3996;49.674;10.716;2024-02-21T13:22:53;13.50;9.20
7902;DHT22;3996;49.674;10.716;2024-02-21T13:25:19;13.40;8.60
7902;DHT22;3996;49.674;10.716;2024-02-21T13:27:47;13.40;9.30
7902;DHT22;3996;49.674;10.716;2024-02-21T13:30:13;13.30;9.60
7902;DHT22;3996;49.674;10.716;2024-02-21T13:32:43;13.40;9.40
7902;DHT22;3996;49.674;10.716;2024-02-21T13:35:11;13.30;9.10
7902;DHT22;3996;49.674;10.716;2024-02-21T13:37:38;13.20;8.70
7902;DHT22;3996;49.674;10.716;2024-02-21T13:40:05;13.10;8.50
7902;DHT22;3996;49.674;10.716;2024-02-21T13:42:31;13.10;8.50
7902;DHT22;3996;49.674;10.716;2024-02-21T13:44:56;13.00;8.40
7902;DHT22;3996;49.674;10.716;2024-02-21T13:47:22;13.00;8.80
7902;DHT22;3996;49.674;10.716;2024-02-21T13:49:48;13.00;9.50
7902;DHT22;3996;49.674;10.716;2024-02-21T13:52:13;13.10;9.10
7902;DHT22;3996;49.674;10.716;2024-02-21T13:54:40;13.00;9.90
7902;DHT22;3996;49.674;10.716;2024-02-21T13:57:05;13.10;10.00
7902;DHT22;3996;49.674;10.716;2024-02-21T13:59:31;13.00;10.00
7902;DHT22;3996;49.674;10.716;2024-02-21T14:01:59;13.00;9.20
7902;DHT22;3996;49.674;10.716;2024-02-21T14:04:24;13.00;9.50
7902;DHT22;3996;49.674;10.716;2024-02-21T14:06:51;13.00;9.70
7902;DHT22;3996;49.674;10.716;2024-02-21T14:09:19;12.90;10.00
7902;DHT22;3996;49.674;10.716;2024-02-21T14:11:44;12.80;8.50
7902;DHT22;3996;49.674;10.716;2024-02-21T14:14:11;12.80;9.40
7902;DHT22;3996;49.674;10.716;2024-02-21T14:16:36;12.80;9.10
7902;DHT22;3996;49.674;10.716;2024-02-21T14:19:02;12.80;9.40
7902;DHT22;3996;49.674;10.716;2024-02-21T14:21:28;12.70;8.50
7902;DHT22;3996;49.674;10.716;2024-02-21T14:23:54;12.70;7.60
7902;DHT22;3996;49.674;10.716;2024-02-21T14:26:20;12.70;7.80
7902;DHT22;3996;49.674;10.716;2024-02-21T14:28:47;12.70;7.70
7902;DHT22;3996;49.674;10.716;2024-02-21T14:31:12;12.60;7.80
7902;DHT22;3996;49.674;10.716;2024-02-21T14:33:38;12.60;8.30
7902;DHT22;3996;49.674;10.716;2024-02-21T14:36:04;12.60;8.30
7902;DHT22;3996;49.674;10.716;2024-02-21T14:38:30;12.70;7.90
7902;DHT22;3996;49.674;10.716;2024-02-21T14:40:55;12.60;7.50
7902;DHT22;3996;49.674;10.716;2024-02-21T14:43:21;12.50;8.00
7902;DHT22;3996;49.674;10.716;2024-02-21T14:45:47;12.50;7.90
7902;DHT22;3996;49.674;10.716;2024-02-21T14:48:13;12.50;7.90
7902;DHT22;3996;49.674;10.716;2024-02-21T14:50:39;12.50;7.90
7902;DHT22;3996;49.674;10.716;2024-02-21T14:53:04;12.40;8.60
7902;DHT22;3996;49.674;10.716;2024-02-21T14:55:30;12.30;9.10
7902;DHT22;3996;49.674;10.716;2024-02-21T14:57:56;12.30;9.00
7902;DHT22;3996;49.674;10.716;2024-02-21T15:00:21;12.20;8.70
7902;DHT22;3996;49.674;10.716;2024-02-21T15:02:57;12.20;8.80
7902;DHT22;3996;49.674;10.716;2024-02-21T15:05:23;12.20;8.90
7902;DHT22;3996;49.674;10.716;2024-02-21T15:07:49;12.30;9.00
7902;DHT22;3996;49.674;10.716;2024-02-21T15:10:15;12.20;8.40
7902;DHT22;3996;49.674;10.716;2024-02-21T15:12:43;12.20;9.00
7902;DHT22;3996;49.674;10.716;2024-02-21T15:15:10;12.10;8.50
7902;DHT22;3996;49.674;10.716;2024-02-21T15:17:35;12.00;10.20
7902;DHT22;3996;49.674;10.716;2024-02-21T15:20:01;12.00;9.40
7902;DHT22;3996;49.674;10.716;2024-02-21T15:22:27;11.90;8.40
7902;DHT22;3996;49.674;10.716;2024-02-21T15:24:53;11.90;9.90
7902;DHT22;3996;49.674;10.716;2024-02-21T15:27:18;12.00;10.30
7902;DHT22;3996;49.674;10.716;2024-02-21T15:29:44;12.00;9.70
7902;DHT22;3996;49.674;10.716;2024-02-21T15:32:10;11.90;10.00
7902;DHT22;3996;49.674;10.716;2024-02-21T15:34:36;11.90;10.10
7902;DHT22;3996;49.674;10.716;2024-02-21T15:37:01;11.90;10.60
7902;DHT22;3996;49.674;10.716;2024-02-21T15:39:28;11.90;9.70
7902;DHT22;3996;49.674;10.716;2024-02-21T15:41:54;11.90;10.50
7902;DHT22;3996;49.674;10.716;2024-02-21T15:44:21;11.80;10.60
7902;DHT22;3996;49.674;10.716;2024-02-21T15:46:48;11.90;11.90
7902;DHT22;3996;49.674;10.716;2024-02-21T15:49:14;11.90;11.70
7902;DHT22;3996;49.674;10.716;2024-02-21T15:51:39;11.70;12.00
7902;DHT22;3996;49.674;10.716;2024-02-21T15:54:08;11.70;12.90
7902;DHT22;3996;49.674;10.716;2024-02-21T15:56:35;11.70;12.90
7902;DHT22;3996;49.674;10.716;2024-02-21T15:59:00;11.70;12.70